createdAt,value
2022-08-29T00:05:01.491Z,93672.63
2022-08-29T00:10:06.985Z,93673.25
2022-08-29T00:15:12.304Z,93682.50
2022-08-29T00:20:19.667Z,93685.97
2022-08-29T00:25:24.058Z,93679.56
2022-08-29T00:30:27.493Z,93683.63
2022-08-29T00:35:35.429Z,93679.44
2022-08-29T00:40:51.280Z,93674.84
2022-08-29T00:46:06.401Z,93664.97
2022-08-29T00:51:15.885Z,93664.34
2022-08-29T00:56:23.383Z,93657.69
2022-08-29T01:01:26.493Z,93658.81
2022-08-29T01:06:30.322Z,93641.94
2022-08-29T01:11:52.465Z,93654.47
2022-08-29T01:16:57.652Z,93659.47
2022-08-29T01:22:25.825Z,93659.47
2022-08-29T01:27:34.617Z,93664.34
2022-08-29T01:32:38.635Z,93665.28
2022-08-29T01:37:44.133Z,93659.94
2022-08-29T01:42:47.900Z,93658.09
2022-08-29T01:47:52.244Z,93654.75
2022-08-29T01:52:55.943Z,93656.53
2022-08-29T01:57:59.362Z,93652.13
2022-08-29T02:03:04.145Z,93651.41
2022-08-29T02:08:08.132Z,93662.97
2022-08-29T02:13:12.467Z,93664.31
2022-08-29T02:18:16.313Z,93660.50
2022-08-29T02:23:30.512Z,93653.47
2022-08-29T02:28:36.238Z,93655.69
2022-08-29T02:33:40.301Z,93654.53
2022-08-29T02:38:44.421Z,93656.53
2022-08-29T02:43:48.088Z,93650.78
2022-08-29T02:49:00.985Z,93647.38
2022-08-29T02:54:05.085Z,93643.72
2022-08-29T02:59:08.674Z,93661.88
2022-08-29T03:04:11.824Z,93655.84
2022-08-29T03:09:15.694Z,93663.16
2022-08-29T03:14:18.786Z,93652.09
2022-08-29T03:19:23.080Z,93663.44
2022-08-29T03:24:27.217Z,93675.53
2022-08-29T03:29:30.337Z,93667.84
2022-08-29T03:34:34.946Z,93668.41
2022-08-29T03:39:38.505Z,93676.03
2022-08-29T03:44:42.773Z,93679.50
2022-08-29T03:49:46.241Z,93679.00
2022-08-29T03:54:49.784Z,93680.69
2022-08-29T03:59:54.168Z,93684.69
2022-08-29T04:05:10.235Z,93700.63
2022-08-29T04:10:17.820Z,93690.03
2022-08-29T04:15:20.910Z,93688.00
2022-08-29T04:20:27.516Z,93696.06
2022-08-29T04:25:37.823Z,93697.38
2022-08-29T04:30:51.093Z,93693.59
2022-08-29T04:35:55.611Z,93702.66
2022-08-29T04:40:58.727Z,93707.28
2022-08-29T04:46:02.586Z,93707.22
2022-08-29T04:51:06.062Z,93716.59
2022-08-29T04:56:13.063Z,93712.75
2022-08-29T05:01:18.835Z,93716.91
2022-08-29T05:06:25.696Z,93710.41
2022-08-29T05:11:30.485Z,93715.63
2022-08-29T05:16:37.570Z,93720.81
2022-08-29T05:21:41.306Z,93729.41
2022-08-29T05:26:45.623Z,93722.16
2022-08-29T05:31:50.048Z,93715.53
2022-08-29T05:36:54.402Z,93712.09
2022-08-29T05:41:58.072Z,93698.97
2022-08-29T05:47:01.960Z,93730.13
2022-08-29T05:52:06.290Z,93735.00
2022-08-29T05:57:16.624Z,93736.91
2022-08-29T06:02:23.970Z,93739.56
2022-08-29T06:07:27.865Z,93735.25
2022-08-29T06:12:30.804Z,93741.75
2022-08-29T06:17:35.485Z,93735.69
2022-08-29T06:22:40.598Z,93713.34
2022-08-29T06:27:44.309Z,93705.63
2022-08-29T06:32:47.989Z,93711.28
2022-08-29T06:37:51.575Z,93723.03
2022-08-29T06:42:55.162Z,93719.59
2022-08-29T06:47:58.563Z,93723.09
2022-08-29T06:53:25.993Z,93721.09
2022-08-29T06:58:24.584Z,93725.78
2022-08-29T07:03:27.846Z,93743.00
2022-08-29T07:08:31.818Z,93750.44
2022-08-29T07:13:35.409Z,93755.81
2022-08-29T07:18:39.065Z,93749.38
2022-08-29T07:23:42.952Z,93746.59
2022-08-29T07:28:48.162Z,93761.94
2022-08-29T07:33:54.564Z,93769.94
2022-08-29T07:39:10.543Z,93763.81
2022-08-29T07:44:16.206Z,93777.94
2022-08-29T07:49:20.073Z,93781.78
2022-08-29T07:54:23.661Z,93792.31
2022-08-29T07:59:26.834Z,93783.22
2022-08-29T08:04:30.567Z,93790.69
2022-08-29T08:09:33.785Z,93791.25
2022-08-29T08:14:37.284Z,93790.19
2022-08-29T08:19:40.666Z,93782.81
2022-08-29T08:24:43.718Z,93781.91
2022-08-29T08:29:46.824Z,93794.56
2022-08-29T08:34:53.656Z,93794.84
2022-08-29T08:39:59.230Z,93792.22
2022-08-29T08:45:18.767Z,93799.13
2022-08-29T08:50:36.052Z,93797.34
2022-08-29T08:55:52.439Z,93806.16
2022-08-29T09:01:18.927Z,93800.13
2022-08-29T09:06:54.325Z,93815.16
2022-08-29T09:12:06.696Z,93816.53
2022-08-29T09:17:36.501Z,93822.25
2022-08-29T09:22:42.608Z,93826.22
2022-08-29T09:27:45.650Z,93823.50
2022-08-29T09:33:17.548Z,93822.06
2022-08-29T09:38:25.980Z,93836.34
2022-08-29T09:43:50.583Z,93824.69
2022-08-29T09:49:15.151Z,93823.13
2022-08-29T09:54:32.399Z,93828.72
2022-08-29T09:59:39.890Z,93808.25
2022-08-29T10:04:53.454Z,93822.91
2022-08-29T10:10:01.637Z,93821.56
2022-08-29T10:15:16.556Z,93812.50
2022-08-29T10:21:11.805Z,93805.78
2022-08-29T10:26:33.722Z,93808.59
2022-08-29T10:31:43.447Z,93812.59
2022-08-29T10:36:56.371Z,93811.13
2022-08-29T10:42:03.656Z,93811.84
2022-08-29T10:47:12.318Z,93811.13
2022-08-29T10:52:21.749Z,93800.84
2022-08-29T10:57:42.175Z,93791.19
2022-08-29T11:03:07.264Z,93787.28
2022-08-29T11:08:34.505Z,93783.16
2022-08-29T11:14:01.217Z,93774.75
2022-08-29T11:19:13.298Z,93767.94
2022-08-29T11:24:19.108Z,93776.00
2022-08-29T11:29:48.244Z,93769.44
2022-08-29T11:35:18.253Z,93771.19
2022-08-29T11:46:56.119Z,93761.31
2022-08-29T11:52:08.899Z,93755.03
2022-08-29T11:57:11.852Z,93752.47
2022-08-29T12:02:30.865Z,93749.09
2022-08-29T12:07:55.404Z,93746.78
2022-08-29T12:13:03.871Z,93739.31
2022-08-29T12:18:17.373Z,93751.44
2022-08-29T12:23:23.868Z,93754.06
2022-08-29T12:28:49.989Z,93757.13
2022-08-29T12:34:17.577Z,93752.75
2022-08-29T12:39:39.052Z,93757.09
2022-08-29T12:44:49.657Z,93749.94
2022-08-29T12:50:00.767Z,93728.25
2022-08-29T12:55:28.870Z,93748.59
2022-08-29T13:00:34.637Z,93752.00
2022-08-29T13:05:40.996Z,93748.13
2022-08-29T13:11:02.751Z,93735.81
2022-08-29T13:16:09.780Z,93733.88
2022-08-29T13:21:22.420Z,93711.09
2022-08-29T13:26:32.717Z,93742.31
2022-08-29T13:31:40.384Z,93705.72
2022-08-29T13:37:03.656Z,93710.31
2022-08-29T13:42:16.662Z,93718.97
2022-08-29T13:47:21.690Z,93691.66
2022-08-29T13:52:26.042Z,93680.72
2022-08-29T13:57:35.244Z,93693.44
2022-08-29T14:02:44.652Z,93683.19
2022-08-29T14:07:49.024Z,93689.84
2022-08-29T14:12:52.305Z,93677.94
2022-08-29T14:17:56.540Z,93687.63
2022-08-29T14:22:59.648Z,93671.91
2022-08-29T14:28:03.027Z,93682.31
2022-08-29T14:33:05.814Z,93672.03
2022-08-29T14:38:12.648Z,93686.50
2022-08-29T14:43:16.248Z,93693.97
2022-08-29T14:48:19.638Z,93675.97
2022-08-29T14:53:23.682Z,93696.56
2022-08-29T14:58:27.433Z,93673.59
2022-08-29T15:03:30.401Z,93685.69
2022-08-29T15:08:33.694Z,93681.81
2022-08-29T15:13:36.662Z,93677.00
2022-08-29T15:19:31.186Z,93673.69
2022-08-29T15:24:05.497Z,93664.88
2022-08-29T15:29:09.606Z,93670.00
2022-08-29T15:34:13.132Z,93680.13
2022-08-29T15:39:16.766Z,93699.22
2022-08-29T15:44:19.841Z,93701.59
2022-08-29T15:49:25.312Z,93680.63
2022-08-29T15:54:28.500Z,93673.31
2022-08-29T15:59:56.649Z,93696.97
2022-08-29T16:04:57.440Z,93693.69
2022-08-29T16:10:04.886Z,93680.44
2022-08-29T16:15:15.770Z,93693.94
2022-08-29T16:20:19.249Z,93689.81
2022-08-29T16:25:24.941Z,93681.03
2022-08-29T16:30:30.222Z,93683.16
2022-08-29T16:35:35.628Z,93680.28
2022-08-29T16:40:39.619Z,93681.03
2022-08-29T16:45:43.950Z,93696.97
2022-08-29T16:50:48.643Z,93692.75
2022-08-29T16:55:52.846Z,93681.81
2022-08-29T17:00:57.301Z,93696.44
2022-08-29T17:06:04.871Z,93699.25
2022-08-29T17:11:08.346Z,93689.38
2022-08-29T17:16:12.535Z,93689.41
2022-08-29T17:21:17.228Z,93708.94
2022-08-29T17:26:22.982Z,93705.09
2022-08-29T17:31:26.837Z,93691.28
2022-08-29T17:36:29.783Z,93705.16
2022-08-29T17:41:33.462Z,93711.19
2022-08-29T17:46:38.848Z,93706.28
2022-08-29T17:51:42.782Z,93701.06
2022-08-29T17:56:51.420Z,93722.72
2022-08-29T18:01:55.981Z,93720.59
2022-08-29T18:07:00.205Z,93735.09
2022-08-29T18:12:03.763Z,93722.19
2022-08-29T18:17:07.440Z,93727.91
2022-08-29T18:22:10.776Z,93735.16
2022-08-29T18:27:14.304Z,93741.75
2022-08-29T18:32:19.425Z,93749.16
2022-08-29T18:37:23.183Z,93759.94
2022-08-29T18:42:40.071Z,93769.94
2022-08-29T18:47:44.347Z,93773.47
2022-08-29T18:52:48.742Z,93769.25
2022-08-29T18:57:52.982Z,93780.34
2022-08-29T19:02:57.693Z,93783.00
2022-08-29T19:08:01.277Z,93802.41
2022-08-29T19:13:08.445Z,93808.44
2022-08-29T19:18:11.928Z,93790.16
2022-08-29T19:23:16.922Z,93799.03
2022-08-29T19:28:21.068Z,93808.06
2022-08-29T19:33:24.508Z,93802.91
2022-08-29T19:38:30.404Z,93815.66
2022-08-29T19:43:35.535Z,93820.16
2022-08-29T19:48:39.808Z,93819.94
2022-08-29T19:53:43.277Z,93820.44
2022-08-29T19:58:46.562Z,93822.66
2022-08-29T20:03:54.225Z,93816.13
2022-08-29T20:08:58.731Z,93809.56
2022-08-29T20:14:02.476Z,93813.41
2022-08-29T20:19:06.966Z,93827.06
2022-08-29T20:24:15.453Z,93813.72
2022-08-29T20:29:20.961Z,93815.72
2022-08-29T20:34:28.724Z,93830.72
2022-08-29T20:39:31.951Z,93831.47
2022-08-29T20:44:38.043Z,93814.47
2022-08-29T20:49:43.818Z,93820.41
2022-08-29T20:54:48.750Z,93808.84
2022-08-29T20:59:52.363Z,93802.53
2022-08-29T21:05:14.381Z,93809.88
2022-08-29T21:10:17.771Z,93806.66
2022-08-29T21:15:22.166Z,93799.16
2022-08-29T21:20:25.748Z,93806.47
2022-08-29T21:25:29.674Z,93801.25
2022-08-29T21:30:34.137Z,93786.53
2022-08-29T21:35:42.203Z,93796.47
2022-08-29T21:40:50.302Z,93811.28
2022-08-29T21:45:54.655Z,93808.22
2022-08-29T21:50:57.666Z,93799.56
2022-08-29T21:56:00.654Z,93816.03
2022-08-29T22:01:05.188Z,93761.28
2022-08-29T22:06:11.124Z,93819.09
2022-08-29T22:11:24.399Z,93824.41
2022-08-29T22:16:33.763Z,93831.19
2022-08-29T22:21:40.561Z,93834.00
2022-08-29T22:26:44.662Z,93814.94
2022-08-29T22:31:47.950Z,93819.31
2022-08-29T22:36:53.481Z,93832.53
2022-08-29T22:41:57.215Z,93826.38
2022-08-29T22:47:00.997Z,93851.25
2022-08-29T22:52:05.614Z,93842.53
2022-08-29T22:57:15.700Z,93842.63
2022-08-29T23:02:21.116Z,93832.34
2022-08-29T23:07:24.765Z,93846.31
2022-08-29T23:12:28.827Z,93840.75
2022-08-29T23:17:32.813Z,93849.97
2022-08-29T23:22:36.007Z,93839.25
2022-08-29T23:27:39.740Z,93838.81
2022-08-29T23:32:42.799Z,93823.13
2022-08-29T23:37:46.481Z,93825.75
2022-08-29T23:42:49.450Z,93822.16
2022-08-29T23:47:53.435Z,93814.56
2022-08-29T23:52:56.550Z,93820.16
2022-08-29T23:57:59.922Z,93803.16
